Time;durP1;ratioP1;P1;durP2;ratioP2;P2;SDS_P1;SDS_P2;PMS_P1;PMS_P2;Temp;Humidity;BMP_temperature;BMP_pressure;BME280_temperature;BME280_humidity;BME280_pressure;Samples;Min_cycle;Max_cycle;Signal;HPM_P1;HPM_P2
2023/10/29 00:00:31;;;;;;;4.17;1.90;;;11.30;99.90;;;-141.84;100.00;70707.31;4999381;28;20291;-65
2023/10/29 00:02:59;;;;;;;3.10;1.63;;;11.30;99.90;;;-141.84;100.00;69653.38;4989943;28;20231;-65
2023/10/29 00:05:28;;;;;;;3.27;1.80;;;11.40;99.90;;;-141.84;100.00;69916.81;4999158;28;20263;-65
2023/10/29 00:07:56;;;;;;;3.33;1.80;;;11.30;99.90;;;-141.84;100.00;65703.56;4999705;28;20764;-66
2023/10/29 00:10:25;;;;;;;1.92;1.60;;;11.40;99.90;;;-141.84;100.00;67809.63;5001826;28;20195;-65
2023/10/29 00:12:54;;;;;;;3.50;1.80;;;11.40;99.90;;;-141.84;100.00;67546.31;4993933;28;20210;-65
2023/10/29 00:15:23;;;;;;;3.50;2.10;;;11.30;99.90;;;-141.84;100.00;61231.81;4996480;28;20295;-65
2023/10/29 00:17:51;;;;;;;2.50;1.57;;;11.40;99.90;;;-141.84;100.00;62809.50;4999810;28;20285;-65
2023/10/29 00:20:19;;;;;;;3.90;1.70;;;11.40;99.90;;;-141.84;100.00;63861.66;4996402;28;20286;-65
2023/10/29 00:22:48;;;;;;;2.88;1.73;;;11.40;99.90;;;-141.84;100.00;69653.38;4996294;28;20203;-65
2023/10/29 00:25:16;;;;;;;3.83;2.00;;;11.30;99.90;;;-141.84;100.00;67809.63;4994309;28;20306;-64
2023/10/29 00:27:44;;;;;;;2.57;1.93;;;11.40;99.90;;;-141.84;100.00;66493.19;4996844;28;20230;-64
2023/10/29 00:30:14;;;;;;;2.83;1.80;;;11.40;99.90;;;-141.84;100.00;64387.81;4996631;28;20234;-65
2023/10/29 00:32:42;;;;;;;3.03;2.23;;;11.40;99.90;;;-141.84;100.00;65703.56;4998400;28;20206;-66
2023/10/29 00:35:11;;;;;;;8.57;1.95;;;11.40;99.90;;;-141.84;100.00;67019.72;4997581;28;20199;-65
2023/10/29 00:37:39;;;;;;;2.93;1.60;;;11.50;99.90;;;-141.84;100.00;65177.19;4998206;28;20335;-65
2023/10/29 00:40:09;;;;;;;3.22;1.70;;;11.50;99.90;;;-141.84;100.00;68863.09;4993867;28;20207;-65
2023/10/29 00:42:37;;;;;;;2.20;1.63;;;11.50;99.90;;;-141.84;100.00;73870.81;4994349;28;20723;-65
2023/10/29 00:45:06;;;;;;;3.50;2.00;;;11.50;99.90;;;-141.84;100.00;79677.06;5001464;28;20211;-66
2023/10/29 00:47:37;;;;;;;5.10;2.50;;;11.40;99.90;;;-141.84;100.00;83112.00;4996340;28;20329;-65
2023/10/29 00:50:06;;;;;;;3.50;1.90;;;11.40;99.90;;;-141.84;100.00;78884.81;4996061;28;20258;-65
2023/10/29 00:52:36;;;;;;;4.55;1.98;;;11.50;99.90;;;-141.84;100.00;78884.81;4998901;28;20297;-66
2023/10/29 00:55:05;;;;;;;2.40;1.80;;;11.40;99.90;;;-141.84;100.00;78092.72;4993374;28;20219;-66
2023/10/29 00:57:34;;;;;;;2.83;1.70;;;11.50;99.90;;;-141.84;100.00;79941.19;4999072;28;20238;-65
2023/10/29 01:00:03;;;;;;;5.40;1.95;;;11.40;99.90;;;-141.84;100.00;84433.91;4993715;28;20301;-65
2023/10/29 01:02:31;;;;;;;3.58;1.92;;;11.40;99.90;;;-141.84;100.00;86814.44;4995817;28;20802;-65
2023/10/29 01:05:05;;;;;;;4.23;2.20;;;11.40;99.90;;;-141.84;100.00;88931.63;5001888;28;20230;-64
2023/10/29 01:07:33;;;;;;;4.85;1.90;;;11.40;99.90;;;-141.84;100.00;85227.25;4996610;28;20215;-65
2023/10/29 01:10:02;;;;;;;3.58;2.10;;;11.40;99.90;;;-141.84;100.00;86549.84;4995456;28;20607;-65
2023/10/29 01:12:30;;;;;;;3.10;1.90;;;11.40;99.90;;;-141.84;100.00;86549.84;4998425;28;20290;-65
2023/10/29 01:14:58;;;;;;;3.33;2.13;;;11.30;99.90;;;-141.84;100.00;87079.03;4992199;28;20286;-65
2023/10/29 01:17:26;;;;;;;4.35;2.25;;;11.40;99.90;;;-141.84;100.00;89725.88;4992693;28;20222;-65
2023/10/29 01:19:55;;;;;;;2.60;2.00;;;11.30;99.90;;;-141.84;100.00;93169.38;4992183;28;20295;-65
2023/10/29 01:22:24;;;;;;;4.47;1.70;;;11.30;99.90;;;-141.84;100.00;93434.41;4998819;28;20667;-66
2023/10/29 01:24:53;;;;;;;3.43;1.80;;;11.30;99.90;;;-141.84;100.00;92374.47;4998467;28;20207;-65
2023/10/29 01:27:22;;;;;;;4.57;2.23;;;11.30;99.90;;;-141.84;100.00;90520.28;4998726;28;20222;-65
2023/10/29 01:29:50;;;;;;;4.70;2.00;;;11.30;99.90;;;-141.84;100.00;94229.53;4994899;28;20209;-65
2023/10/29 01:32:19;;;;;;;3.00;2.23;;;11.40;99.90;;;-141.84;100.00;92904.41;4992789;28;20263;-65
2023/10/29 01:34:47;;;;;;;2.85;1.90;;;11.30;99.90;;;-141.84;100.00;95820.25;4995261;28;20235;-64
2023/10/29 01:37:16;;;;;;;5.03;2.07;;;11.30;99.90;;;-141.84;100.00;96350.63;4995530;28;20196;-65
2023/10/29 01:39:45;;;;;;;2.67;1.80;;;11.30;99.90;;;-141.84;100.00;93434.41;5000397;28;20682;-65
2023/10/29 01:42:13;;;;;;;5.57;2.10;;;11.40;99.90;;;-141.84;100.00;92374.47;4996398;28;20333;-65
2023/10/29 01:44:42;;;;;;;4.73;1.90;;;11.40;99.90;;;-141.84;100.00;95820.25;4999509;28;20754;-65
2023/10/29 01:47:10;;;;;;;5.00;1.87;;;11.40;99.90;;;-141.84;100.00;98207.50;4995664;28;20285;-64
2023/10/29 01:49:38;;;;;;;4.27;1.97;;;11.40;99.90;;;-141.84;100.00;97676.88;4995084;28;20882;-65
2023/10/29 01:52:07;;;;;;;5.13;2.05;;;11.40;99.90;;;-141.84;100.00;99799.78;5000973;28;20289;-66
2023/10/29 01:54:35;;;;;;;3.67;1.90;;;11.40;99.90;;;-141.84;100.00;100330.69;4997409;28;20535;-66
2023/10/29 01:57:05;;;;;;;7.10;2.00;;;11.40;99.90;;;-141.84;100.00;92639.44;4995794;28;20299;-64
2023/10/29 01:59:33;;;;;;;3.37;1.70;;;11.40;99.90;;;-141.84;100.00;96615.84;4999822;28;20663;-65
2023/10/29 02:02:01;;;;;;;3.10;1.70;;;11.50;99.90;;;-141.84;100.00;97146.31;4995043;28;20210;-65
2023/10/29 02:04:31;;;;;;;7.37;2.27;;;11.40;99.90;;;-141.84;100.00;102455.00;4998191;28;20520;-64
2023/10/29 02:07:00;;;;;;;3.10;2.20;;;11.40;99.90;;;-141.84;100.00;105377.72;4997415;28;20202;-65
2023/10/29 02:09:28;;;;;;;3.00;1.90;;;11.40;99.90;;;-141.84;100.00;108302.56;4997191;28;20306;-64
2023/10/29 02:11:56;;;;;;;4.17;1.63;;;11.40;99.90;;;-141.84;100.00;108302.56;4995581;28;20577;-65
2023/10/29 02:14:26;;;;;;;6.80;2.37;;;11.40;99.90;;;-141.84;100.00;110164.91;4996841;28;20202;-65
2023/10/29 02:16:54;;;;;;;3.13;1.80;;;11.30;99.90;;;-141.84;100.00;111761.88;4998376;28;20234;-65
2023/10/29 02:19:23;;;;;;;3.47;1.90;;;11.30;99.90;;;-141.84;100.00;111761.88;4997411;28;20206;-64
2023/10/29 02:21:56;;;;;;;5.30;2.00;;;11.30;99.90;;;-141.84;100.00;111229.50;4997563;28;20289;-66
2023/10/29 02:24:24;;;;;;;4.10;1.90;;;11.30;99.90;;;-141.84;100.00;111495.69;4996400;28;20195;-64
2023/10/29 02:26:53;;;;;;;3.17;2.00;;;11.30;99.90;;;-141.84;100.00;112028.13;4994126;28;20204;-65
2023/10/29 02:29:21;;;;;;;3.23;1.70;;;11.30;99.90;;;-141.84;100.00;112294.34;4988454;28;20726;-65
2023/10/29 02:31:49;;;;;;;2.50;1.70;;;11.30;99.90;;;-141.84;100.00;112560.63;4991868;28;20202;-64
2023/10/29 02:34:18;;;;;;;4.70;1.80;;;11.30;99.90;;;-141.84;100.00;112294.34;4996860;28;20203;-65
2023/10/29 02:36:46;;;;;;;3.88;1.73;;;11.30;99.90;;;-141.84;100.00;113093.19;4997851;28;20291;-65
2023/10/29 02:39:15;;;;;;;3.73;1.80;;;11.30;99.90;;;-141.84;100.00;109632.72;4994111;28;20867;-64
2023/10/29 02:41:43;;;;;;;4.07;2.13;;;11.30;99.90;;;-141.84;100.00;101127.16;4995243;28;20218;-64
2023/10/29 02:44:12;;;;;;;2.77;1.70;;;11.40;99.90;;;-141.84;100.00;101923.81;4993955;28;20316;-64
2023/10/29 02:46:40;;;;;;;3.97;1.83;;;11.40;99.90;;;-141.84;100.00;100861.66;4997761;28;20210;-65
2023/10/29 02:49:08;;;;;;;4.60;1.95;;;11.50;99.90;;;-141.84;100.00;92904.41;4997065;28;20223;-65
2023/10/29 02:51:36;;;;;;;4.40;1.90;;;11.50;99.90;;;-141.84;100.00;93699.44;4993535;28;20219;-65
2023/10/29 02:54:05;;;;;;;3.60;1.70;;;11.50;99.90;;;-141.84;100.00;94229.53;4996507;28;20294;-66
2023/10/29 02:56:37;;;;;;;4.22;1.73;;;11.50;99.90;;;-141.84;100.00;95555.09;4995957;28;20282;-65
2023/10/29 02:59:05;;;;;;;3.73;2.37;;;11.60;99.90;;;-141.84;100.00;92639.44;4992779;28;20231;-68
2023/10/29 03:01:34;;;;;;;3.95;1.80;;;11.60;99.90;;;-141.84;100.00;87608.25;4996740;28;20289;-65
2023/10/29 03:04:04;;;;;;;3.10;1.67;;;11.60;99.90;;;-141.84;100.00;81790.53;4998061;28;20628;-65
2023/10/29 03:06:35;;;;;;;5.78;2.15;;;11.70;99.90;;;-141.84;100.00;81526.28;4998663;28;20209;-64
2023/10/29 03:09:03;;;;;;;3.72;1.83;;;11.70;99.90;;;-141.84;100.00;79412.97;4993281;28;20238;-65
2023/10/29 03:11:31;;;;;;;3.13;2.15;;;11.70;99.90;;;-141.84;100.00;81262.06;4992597;28;20212;-66
2023/10/29 03:14:01;;;;;;;2.00;1.58;;;11.70;99.90;;;-141.84;100.00;82319.06;4997891;28;20756;-65
2023/10/29 03:16:30;;;;;;;2.58;1.65;;;11.70;99.90;;;-141.84;100.00;80733.66;4991368;28;20295;-66
2023/10/29 03:18:58;;;;;;;4.47;1.88;;;11.70;99.90;;;-141.84;100.00;76508.97;4998024;28;20191;-66
2023/10/29 03:21:26;;;;;;;2.65;1.70;;;11.70;99.90;;;-141.84;100.00;64650.94;4992672;28;20221;-65
2023/10/29 03:23:54;;;;;;;5.80;1.65;;;11.80;99.90;;;-141.84;100.00;64914.06;4994648;28;20258;-65
2023/10/29 03:26:23;;;;;;;2.63;1.70;;;11.80;99.90;;;-141.84;100.00;64387.81;4997380;28;20226;-66
2023/10/29 03:28:51;;;;;;;3.65;1.80;;;11.80;99.90;;;-141.84;100.00;58341.03;4995372;28;20223;-65
2023/10/29 03:31:21;;;;;;;2.17;1.63;;;11.80;99.90;;;-141.84;100.00;38484.97;4997154;28;20848;-66
2023/10/29 03:33:49;;;;;;;3.78;1.60;;;11.90;99.90;;;-141.84;100.00;43395.16;4996571;28;20272;-65
2023/10/29 03:36:17;;;;;;;3.92;2.05;;;11.90;99.90;;;-141.84;100.00;47584.78;4995991;28;20209;-65
2023/10/29 03:38:45;;;;;;;3.30;1.70;;;11.90;99.90;;;-141.84;100.00;44442.13;4998732;28;20199;-65
2023/10/29 03:41:22;;;;;;;3.35;1.73;;;11.90;99.90;;;-141.84;100.00;36139.31;5001163;28;20207;-66
2023/10/29 03:43:50;;;;;;;2.20;1.60;;;12.00;99.90;;;-141.84;100.00;30771.44;4994666;28;20199;-66
2023/10/29 03:46:20;;;;;;;1.73;1.63;;;12.00;99.90;;;-141.84;100.00;33931.72;4998721;28;20289;-65
2023/10/29 03:48:48;;;;;;;4.13;1.80;;;12.00;99.90;;;-141.84;100.00;29092.41;5000516;28;20220;-65
2023/10/29 03:51:16;;;;;;;2.38;1.58;;;12.00;99.90;;;-141.84;100.00;33374.91;4995753;28;20286;-65
2023/10/29 03:53:44;;;;;;;2.23;1.57;;;12.10;99.90;;;-141.84;100.00;22161.91;4996050;28;20200;-66
2023/10/29 03:56:13;;;;;;;2.40;1.90;;;12.20;99.90;;;-141.84;100.00;22729.34;4997552;28;20223;-65
2023/10/29 03:58:41;;;;;;;3.97;1.77;;;12.10;99.90;;;-141.84;100.00;25280.66;4999624;28;20199;-65
2023/10/29 04:01:12;;;;;;;5.43;1.83;;;12.20;99.90;;;-141.84;100.00;27953.78;5002996;28;20199;-65
2023/10/29 04:03:43;;;;;;;2.87;1.77;;;12.10;99.90;;;-141.84;100.00;32135.13;5000461;28;20603;-64
2023/10/29 04:06:12;;;;;;;4.30;1.80;;;12.20;99.90;;;-141.84;100.00;48632.88;5002234;28;20193;-65
2023/10/29 04:08:41;;;;;;;2.90;1.75;;;12.00;99.90;;;-141.84;100.00;55189.84;4999988;28;20273;-64
2023/10/29 04:11:09;;;;;;;2.63;1.85;;;12.00;99.90;;;-141.84;100.00;53615.19;4997655;28;20206;-66
2023/10/29 04:13:39;;;;;;;2.55;1.80;;;11.90;99.90;;;-141.84;100.00;54927.34;4994004;28;20204;-65
2023/10/29 04:16:08;;;;;;;4.07;1.90;;;11.90;99.90;;;-141.84;100.00;53877.56;4993421;28;20210;-66
2023/10/29 04:18:36;;;;;;;3.28;1.67;;;11.90;99.90;;;-141.84;100.00;59654.75;4996507;28;20203;-65
2023/10/29 04:21:07;;;;;;;2.37;1.70;;;11.90;99.90;;;-141.84;100.00;48894.97;4999103;28;20207;-66
2023/10/29 04:23:38;;;;;;;2.15;1.88;;;11.90;99.90;;;-141.84;100.00;53352.78;4996413;28;20226;-65
2023/10/29 04:26:06;;;;;;;1.95;1.65;;;11.90;99.90;;;-141.84;100.00;46798.88;4998894;28;20258;-66
2023/10/29 04:28:34;;;;;;;3.42;1.67;;;11.90;99.90;;;-141.84;100.00;39978.00;4993532;28;20696;-65
2023/10/29 04:31:03;;;;;;;3.30;1.77;;;12.00;99.90;;;-141.84;100.00;42610.09;4998565;28;20199;-65
2023/10/29 04:33:32;;;;;;;3.78;2.00;;;11.90;99.90;;;-141.84;100.00;33695.13;4999784;28;20210;-65
2023/10/29 04:36:01;;;;;;;3.67;1.83;;;12.00;99.90;;;-141.84;100.00;35927.06;4999040;28;20196;-65
2023/10/29 04:38:31;;;;;;;3.33;1.97;;;11.90;99.90;;;-141.84;100.00;43395.16;4996635;28;20269;-65
2023/10/29 04:40:59;;;;;;;1.67;1.40;;;12.00;99.90;;;-141.84;100.00;46275.03;4996049;28;20315;-65
2023/10/29 04:43:27;;;;;;;2.40;1.67;;;11.90;99.90;;;-141.84;100.00;38009.19;4999035;28;20245;-65
2023/10/29 04:45:56;;;;;;;3.38;1.73;;;12.00;99.90;;;-141.84;100.00;41825.19;5001333;28;20202;-65
2023/10/29 04:48:24;;;;;;;3.20;1.80;;;12.00;99.90;;;-141.84;100.00;48632.88;4998446;28;20207;-65
2023/10/29 04:50:53;;;;;;;2.15;1.83;;;11.90;99.90;;;-141.84;100.00;36582.19;5001322;28;20289;-65
2023/10/29 04:53:21;;;;;;;2.53;1.60;;;12.00;99.90;;;-141.84;100.00;31933.31;5000695;28;20203;-65
2023/10/29 04:55:50;;;;;;;4.18;1.77;;;12.00;99.90;;;-141.84;100.00;36163.81;4996062;28;20278;-65
2023/10/29 04:58:19;;;;;;;1.85;1.50;;;12.00;99.90;;;-141.84;100.00;41549.28;4995245;28;20209;-65
2023/10/29 05:00:47;;;;;;;3.13;1.67;;;12.00;99.90;;;-141.84;100.00;34237.69;5000685;28;20215;-66
2023/10/29 05:03:15;;;;;;;3.88;1.80;;;12.00;99.90;;;-141.84;100.00;31191.28;4993118;28;20196;-65
2023/10/29 05:05:44;;;;;;;2.73;1.80;;;12.00;99.90;;;-141.84;100.00;22920.53;4999229;28;20294;-66
2023/10/29 05:08:12;;;;;;;2.35;1.55;;;12.10;99.90;;;-141.84;100.00;21246.91;4997697;28;20207;-65
2023/10/29 05:10:43;;;;;;;3.13;1.70;;;12.20;99.90;;;-141.84;100.00;22812.72;4992650;28;20293;-66
2023/10/29 05:13:13;;;;;;;3.95;1.55;;;12.10;99.90;;;-141.84;100.00;20541.50;4998671;28;20195;-65
2023/10/29 05:15:41;;;;;;;3.17;1.42;;;12.10;99.90;;;-141.84;100.00;20147.16;4996370;28;20238;-65
2023/10/29 05:18:09;;;;;;;3.47;1.40;;;12.20;99.90;;;-141.84;100.00;20130.91;5001339;28;20234;-65
2023/10/29 05:20:38;;;;;;;2.50;1.55;;;12.20;99.90;;;-141.84;100.00;20797.63;4995297;28;20729;-65
2023/10/29 05:23:07;;;;;;;2.55;1.70;;;12.20;99.90;;;-141.84;100.00;20801.69;4996240;28;20203;-65
2023/10/29 05:25:36;;;;;;;1.98;1.40;;;12.20;99.90;;;-141.84;100.00;20984.66;4995657;28;20246;-65
2023/10/29 05:28:05;;;;;;;3.42;1.60;;;12.20;99.90;;;-141.84;100.00;20799.66;4995976;28;20262;-65
2023/10/29 05:30:35;;;;;;;2.75;1.80;;;12.20;99.90;;;-141.84;99.41;19862.63;4992498;28;20273;-66
2023/10/29 05:33:03;;;;;;;3.33;1.67;;;12.30;99.90;;;-141.84;100.00;20405.31;4995228;28;20227;-66
2023/10/29 05:35:31;;;;;;;2.13;1.50;;;12.20;99.90;;;-141.84;100.00;20490.66;4999985;28;20207;-65
2023/10/29 05:38:00;;;;;;;3.28;1.80;;;12.20;99.90;;;-141.84;96.90;19645.16;5000937;28;20210;-66
2023/10/29 05:40:28;;;;;;;1.92;1.75;;;12.30;99.90;;;-141.84;95.70;19525.25;4999061;28;20286;-66
2023/10/29 05:42:56;;;;;;;4.05;1.67;;;12.40;99.90;;;-141.84;98.18;19671.56;4991758;28;20286;-66
2023/10/29 05:45:25;;;;;;;2.97;1.70;;;12.30;99.90;;;-141.84;98.25;19679.72;4991987;28;20920;-66
2023/10/29 05:47:55;;;;;;;2.25;1.60;;;12.30;99.90;;;-141.84;98.25;19667.50;4998453;28;20298;-65
2023/10/29 05:50:23;;;;;;;3.60;1.70;;;12.30;99.90;;;-141.84;97.76;19673.59;4996547;28;20229;-66
2023/10/29 05:52:51;;;;;;;3.97;1.90;;;12.30;99.90;;;-141.84;98.66;19710.19;4994576;28;20261;-66
2023/10/29 05:55:22;;;;;;;2.08;1.40;;;12.20;99.90;;;-141.84;98.11;19706.13;4999730;28;20230;-64
2023/10/29 05:57:50;;;;;;;4.13;1.42;;;12.20;99.90;;;-141.84;96.55;19551.69;4999514;28;20191;-64
2023/10/29 06:00:19;;;;;;;4.18;1.60;;;12.40;99.90;;;-141.84;98.52;19744.75;4994968;28;20287;-65
2023/10/29 06:02:47;;;;;;;5.20;1.60;;;12.20;99.90;;;-141.84;98.77;19750.84;5000995;28;20210;-64
2023/10/29 06:05:17;;;;;;;2.58;1.60;;;12.20;99.90;;;-141.84;97.68;19632.97;4998086;28;20257;-65
2023/10/29 06:07:45;;;;;;;2.15;1.25;;;12.20;99.90;;;-141.84;97.26;19622.81;4993726;28;20199;-64
2023/10/29 06:10:14;;;;;;;3.28;1.48;;;12.20;99.90;;;-141.84;95.83;19521.19;4991564;28;20318;-64
2023/10/29 06:12:43;;;;;;;3.28;1.52;;;12.30;99.90;;;-141.84;93.76;19446.00;4992015;28;20269;-65
2023/10/29 06:15:12;;;;;;;2.15;1.70;;;12.30;99.90;;;-141.84;93.05;19431.78;4994646;28;20257;-64
2023/10/29 06:17:41;;;;;;;2.67;1.58;;;12.30;99.90;;;-141.84;93.34;19466.31;4996896;28;20218;-64
2023/10/29 06:20:16;;;;;;;3.85;1.50;;;12.40;99.90;;;-141.84;92.67;19407.38;4992235;28;20247;-64
2023/10/29 06:22:47;;;;;;;5.03;1.92;;;12.40;99.90;;;-141.84;93.09;19401.28;4993762;28;20615;-64
2023/10/29 06:25:16;;;;;;;3.08;1.77;;;12.40;99.90;;;-141.84;92.83;19399.25;4996090;28;20684;-64
2023/10/29 06:27:44;;;;;;;2.35;1.40;;;12.40;99.90;;;-141.84;92.92;19419.59;4997412;28;20277;-64
2023/10/29 06:30:13;;;;;;;2.50;1.50;;;12.30;99.90;;;-141.84;93.36;19383.00;4990865;28;20311;-64
2023/10/29 06:32:41;;;;;;;3.10;1.40;;;12.40;99.90;;;-141.84;93.52;19466.31;5000093;28;20237;-64
2023/10/29 06:35:11;;;;;;;2.38;1.30;;;12.40;99.90;;;-141.84;93.88;19446.00;4997857;28;20202;-63
2023/10/29 06:37:40;;;;;;;3.05;1.73;;;12.40;99.90;;;-141.84;92.41;19399.25;4993840;28;20545;-64
2023/10/29 06:40:11;;;;;;;2.33;1.63;;;12.40;99.90;;;-141.84;92.65;19425.69;4993137;28;20262;-65
2023/10/29 06:42:39;;;;;;;3.88;1.38;;;12.40;99.90;;;-141.84;88.08;19370.81;4997399;28;20227;-64
2023/10/29 06:45:09;;;;;;;4.85;1.48;;;12.60;99.90;;;-141.84;88.79;19340.31;4995519;28;20214;-64
2023/10/29 06:47:38;;;;;;;3.13;1.48;;;12.50;99.90;;;-141.84;87.43;19378.94;4993107;28;20203;-65
2023/10/29 06:50:07;;;;;;;2.92;1.60;;;12.60;99.90;;;-141.84;86.85;19356.59;4993723;28;20226;-64
2023/10/29 06:52:36;;;;;;;2.55;1.50;;;12.70;99.90;;;-141.84;87.54;19374.88;5000190;28;20230;-64
2023/10/29 06:55:06;;;;;;;2.47;1.38;;;12.70;99.90;;;-141.84;86.00;19389.09;4994788;28;20291;-65
2023/10/29 06:57:36;;;;;;;1.95;1.40;;;12.80;99.90;;;-141.84;84.73;19364.72;4998326;28;20196;-64
2023/10/29 07:00:08;;;;;;;1.77;1.35;;;12.90;99.90;;;-141.84;84.23;19372.84;4991521;28;20227;-64
2023/10/29 07:02:36;;;;;;;4.20;1.30;;;12.90;99.90;;;-141.84;83.73;19354.56;4997593;28;20239;-65
2023/10/29 07:05:06;;;;;;;3.22;1.70;;;12.90;99.90;;;-141.84;83.73;19334.22;4991873;28;20203;-64
2023/10/29 07:07:34;;;;;;;3.78;2.28;;;12.90;99.90;;;-141.84;84.16;19338.28;4995655;28;20211;-64
2023/10/29 07:10:08;;;;;;;2.10;1.90;;;12.90;99.90;;;-141.84;81.24;19370.81;4999118;28;20219;-66
2023/10/29 07:12:37;;;;;;;3.67;1.70;;;13.10;99.90;;;-141.84;82.72;19405.34;4996916;28;20294;-66
2023/10/29 07:15:11;;;;;;;1.70;1.40;;;13.10;99.90;;;-141.84;81.38;19409.41;5000655;28;20199;-65
2023/10/29 07:17:39;;;;;;;2.28;1.40;;;13.10;99.90;;;-141.84;79.98;19393.16;4998352;28;20216;-65
2023/10/29 07:20:10;;;;;;;1.83;1.45;;;13.30;99.90;;;-141.84;79.91;19439.91;4991444;28;21696;-64
2023/10/29 07:22:38;;;;;;;2.33;1.13;;;13.30;99.90;;;-141.84;80.46;19419.59;4997345;28;20290;-65
2023/10/29 07:25:08;;;;;;;1.45;1.20;;;13.40;99.90;;;-141.84;77.48;19409.41;5000493;28;20264;-65
2023/10/29 07:27:38;;;;;;;1.40;1.30;;;13.50;99.90;;;-141.84;75.91;19452.09;4996345;28;20204;-65
2023/10/29 07:30:09;;;;;;;1.75;1.30;;;13.60;99.90;;;-141.84;76.03;19431.78;4996091;28;20672;-65
2023/10/29 07:32:39;;;;;;;2.20;1.20;;;13.60;99.90;;;-141.84;74.18;19435.84;4997936;28;20208;-65
2023/10/29 07:35:08;;;;;;;3.15;1.40;;;13.60;99.90;;;-141.84;75.01;19450.06;4997368;28;20218;-64
2023/10/29 07:37:36;;;;;;;1.95;1.20;;;13.70;99.90;;;-141.84;72.52;19456.16;4998037;28;20550;-63
2023/10/29 07:40:06;;;;;;;1.38;1.13;;;13.80;99.90;;;-141.84;70.13;19496.81;4997622;28;20227;-65
2023/10/29 07:42:35;;;;;;;4.80;1.38;;;13.90;99.90;;;-141.84;70.27;19464.28;4994906;28;20826;-64
2023/10/29 07:45:05;;;;;;;1.65;1.17;;;14.00;99.90;;;-141.84;68.11;19527.28;4994193;28;20294;-65
2023/10/29 07:47:34;;;;;;;1.58;1.00;;;14.20;99.90;;;-141.84;67.82;19490.72;4996481;28;20203;-64
2023/10/29 07:50:02;;;;;;;1.17;0.98;;;14.30;99.90;;;-141.84;66.21;19529.31;4998995;28;20203;-64
2023/10/29 07:52:33;;;;;;;1.20;1.10;;;14.40;99.90;;;-141.84;67.38;19537.44;4999249;28;20499;-65
2023/10/29 07:55:02;;;;;;;1.60;1.00;;;14.40;99.90;;;-141.84;67.94;19541.50;4997393;28;20642;-65
2023/10/29 07:57:30;;;;;;;1.83;1.00;;;14.40;99.90;;;-141.84;66.39;19553.72;4995607;28;20310;-65
2023/10/29 07:59:59;;;;;;;1.15;1.05;;;14.50;99.90;;;-141.84;66.42;19531.34;4992065;28;20262;-65
2023/10/29 08:02:28;;;;;;;1.58;0.95;;;14.50;99.90;;;-141.84;65.05;19586.22;4996317;28;20208;-65
2023/10/29 08:04:56;;;;;;;2.42;1.10;;;14.50;99.90;;;-141.84;64.60;19559.81;4995457;28;20202;-65
2023/10/29 08:07:25;;;;;;;1.58;1.20;;;14.60;99.90;;;-141.84;64.93;19553.72;4992965;28;20320;-64
2023/10/29 08:09:53;;;;;;;1.88;1.50;;;14.50;99.90;;;-141.84;65.11;19549.63;4999386;28;20236;-66
2023/10/29 08:12:21;;;;;;;1.55;1.20;;;14.50;99.90;;;-141.84;65.65;19586.22;4994112;28;20669;-65
2023/10/29 08:14:49;;;;;;;1.60;1.10;;;14.40;99.90;;;-141.84;64.62;19590.28;4999959;28;20741;-65
2023/10/29 08:17:18;;;;;;;1.75;1.40;;;14.40;99.90;;;-141.84;64.80;19555.75;4995318;28;20211;-64
2023/10/29 08:19:48;;;;;;;2.15;1.33;;;14.40;99.90;;;-141.84;65.65;19525.25;4992587;28;20362;-64
2023/10/29 08:22:17;;;;;;;1.63;1.10;;;14.30;99.90;;;-141.84;66.88;19519.16;4992207;28;20572;-65
2023/10/29 08:24:45;;;;;;;2.38;1.00;;;14.20;99.90;;;-141.84;67.17;19527.28;4996538;28;20195;-64
2023/10/29 08:27:14;;;;;;;3.75;1.10;;;14.20;99.90;;;-141.84;67.88;19492.75;4999170;28;20266;-65
2023/10/29 08:29:43;;;;;;;1.10;1.00;;;14.10;99.90;;;-141.84;66.28;19509.00;4992344;28;20294;-65
2023/10/29 08:32:12;;;;;;;1.67;1.10;;;14.10;99.90;;;-141.84;67.00;19531.34;4995069;28;20760;-64
2023/10/29 08:34:41;;;;;;;2.80;1.08;;;14.00;99.90;;;-141.84;68.27;19509.00;4995275;28;20518;-65
2023/10/29 08:37:11;;;;;;;1.20;1.10;;;14.00;99.90;;;-141.84;66.73;19527.28;4994303;28;20285;-64
2023/10/29 08:39:39;;;;;;;1.38;1.08;;;14.10;99.90;;;-141.84;66.93;19537.44;4994001;28;20241;-65
2023/10/29 08:42:08;;;;;;;2.95;1.10;;;14.20;99.90;;;-141.84;66.51;19549.63;4995395;28;20203;-65
2023/10/29 08:44:36;;;;;;;2.65;1.50;;;14.30;99.90;;;-141.84;65.20;19598.41;4991479;28;20218;-64
2023/10/29 08:47:05;;;;;;;3.33;1.30;;;14.50;99.90;;;-141.84;64.78;19592.31;4989343;28;20211;-65
2023/10/29 08:49:33;;;;;;;3.92;1.23;;;14.60;99.90;;;-141.84;64.78;19596.38;4990729;28;20211;-63
2023/10/29 08:52:01;;;;;;;3.08;1.13;;;14.60;99.90;;;-141.84;63.51;19610.59;4988482;28;20234;-64
2023/10/29 08:54:31;;;;;;;2.08;1.15;;;14.70;99.90;;;-141.84;63.94;19639.06;4987234;28;20629;-64
2023/10/29 08:56:59;;;;;;;2.17;1.23;;;14.80;99.90;;;-141.84;62.79;19677.66;4994837;28;20294;-65
2023/10/29 08:59:27;;;;;;;2.03;1.20;;;14.90;99.90;;;-141.84;63.66;19647.19;4988277;28;20227;-65
2023/10/29 09:01:55;;;;;;;1.90;1.15;;;14.90;99.90;;;-141.84;62.20;19651.25;4991291;28;20555;-65
2023/10/29 09:04:24;;;;;;;1.38;1.13;;;14.90;99.90;;;-141.84;62.45;19657.34;4992250;28;20206;-63
2023/10/29 09:06:52;;;;;;;2.35;1.05;;;15.00;99.90;;;-141.84;61.88;19655.31;4988631;28;20333;-65
2023/10/29 09:09:20;;;;;;;3.53;1.10;;;15.10;99.90;;;-141.84;61.54;19663.44;4990498;28;20200;-65
2023/10/29 09:11:54;;;;;;;2.25;1.10;;;15.20;99.90;;;-141.84;60.87;19673.59;4993791;28;20231;-65
2023/10/29 09:14:22;;;;;;;2.58;1.20;;;15.20;99.90;;;-141.84;62.28;19673.59;4991119;28;20663;-64
2023/10/29 09:16:50;;;;;;;1.10;0.95;;;15.10;99.90;;;-141.84;61.88;19683.78;5001151;28;20199;-65
2023/10/29 09:19:20;;;;;;;1.55;0.93;;;15.10;99.90;;;-141.84;62.30;19687.84;4990422;28;20207;-64
2023/10/29 09:21:48;;;;;;;1.27;1.00;;;15.10;99.90;;;-141.84;63.65;19687.84;4994964;28;20281;-66
2023/10/29 09:24:16;;;;;;;1.67;1.17;;;15.10;99.90;;;-141.84;63.94;19667.50;4990129;28;20200;-65
2023/10/29 09:26:44;;;;;;;2.28;1.10;;;15.00;99.90;;;-141.84;65.28;19602.47;5000585;28;20285;-64
2023/10/29 09:29:14;;;;;;;2.60;1.02;;;14.90;99.90;;;-141.84;66.11;19649.22;4997513;28;20655;-65
2023/10/29 09:31:42;;;;;;;2.80;1.13;;;14.90;99.90;;;-141.84;64.75;19663.44;4996868;28;20273;-64
2023/10/29 09:34:11;;;;;;;1.52;1.10;;;14.90;99.90;;;-141.84;64.69;19643.13;4996195;28;20195;-64
2023/10/29 09:36:39;;;;;;;2.05;1.00;;;15.00;99.90;;;-141.84;65.70;19641.09;4998670;28;20640;-65
2023/10/29 09:39:08;;;;;;;1.20;1.10;;;15.00;99.90;;;-141.84;65.74;19659.38;4995765;28;20628;-65
2023/10/29 09:41:38;;;;;;;1.60;1.08;;;15.00;99.90;;;-141.84;65.23;19645.16;4999529;28;20198;-64
2023/10/29 09:44:08;;;;;;;1.23;0.90;;;14.90;99.90;;;-141.84;66.50;19643.13;4992354;28;20250;-64
2023/10/29 09:46:38;;;;;;;1.55;1.10;;;14.90;99.90;;;-141.84;65.32;19635.00;4996018;28;20207;-64
2023/10/29 09:49:06;;;;;;;1.83;1.30;;;14.80;99.90;;;-141.84;66.81;19628.91;4996784;28;20231;-64
2023/10/29 09:51:37;;;;;;;2.45;1.60;;;14.80;99.90;;;-141.84;67.73;19624.84;4990219;28;20216;-66
2023/10/29 09:54:07;;;;;;;2.38;1.00;;;14.70;99.90;;;-141.84;65.72;19651.25;4993423;28;20763;-64
2023/10/29 09:56:37;;;;;;;2.80;1.13;;;14.70;99.90;;;-141.84;66.92;19630.94;4993373;28;20268;-65
2023/10/29 09:59:06;;;;;;;1.20;0.93;;;14.80;99.90;;;-141.84;65.10;19685.81;4999639;28;20281;-64
2023/10/29 10:01:34;;;;;;;1.80;1.02;;;14.90;99.90;;;-141.84;65.67;19645.16;4997102;28;20305;-65
2023/10/29 10:04:23;;;;;;;1.83;1.00;;;15.00;99.90;;;-141.84;62.49;19769.13;4998633;28;20281;-66
2023/10/29 10:06:57;;;;;;;1.95;1.20;;;15.30;99.90;;;-141.84;62.92;19726.44;4988317;28;20206;-65
2023/10/29 10:09:26;;;;;;;2.45;1.48;;;15.40;99.90;;;-141.84;62.98;19756.94;4992200;28;20207;-64